createdAt,value
2022-11-28T00:02:16.376Z,2.27
2022-11-28T00:04:46.285Z,2.25
2022-11-28T00:07:16.316Z,2.24
2022-11-28T00:09:46.315Z,2.23
2022-11-28T00:12:16.934Z,2.22
2022-11-28T00:14:46.642Z,2.20
2022-11-28T00:17:16.388Z,2.19
2022-11-28T00:19:46.285Z,2.18
2022-11-28T00:22:15.990Z,2.17
2022-11-28T00:24:45.751Z,2.16
2022-11-28T00:27:15.520Z,2.14
2022-11-28T00:29:45.185Z,2.15
2022-11-28T00:32:14.990Z,2.14
2022-11-28T00:34:44.761Z,2.12
2022-11-28T00:37:13.292Z,2.16
2022-11-28T00:39:41.872Z,2.16
2022-11-28T00:42:12.487Z,2.17
2022-11-28T00:44:41.621Z,2.21
2022-11-28T00:47:09.863Z,2.20
2022-11-28T00:49:38.426Z,2.17
2022-11-28T00:52:06.919Z,2.17
2022-11-28T00:54:35.493Z,2.15
2022-11-28T00:57:03.794Z,2.14
2022-11-28T00:59:32.031Z,2.13
2022-11-28T01:02:01.837Z,2.17
2022-11-28T01:04:29.020Z,2.17
2022-11-28T01:06:58.896Z,2.15
2022-11-28T01:09:29.721Z,2.12
2022-11-28T01:11:59.613Z,2.12
2022-11-28T01:14:30.477Z,2.11
2022-11-28T01:17:00.266Z,2.10
2022-11-28T01:19:27.474Z,2.11
2022-11-28T01:21:54.606Z,2.11
2022-11-28T01:24:24.334Z,2.08
2022-11-28T01:26:54.071Z,2.07
2022-11-28T01:29:23.853Z,2.07
2022-11-28T01:31:53.661Z,2.08
2022-11-28T01:34:23.524Z,2.07
2022-11-28T01:36:53.072Z,2.05
2022-11-28T01:39:22.832Z,2.03
2022-11-28T01:41:52.650Z,2.03
2022-11-28T01:44:22.232Z,2.04
2022-11-28T01:46:52.008Z,2.06
2022-11-28T01:49:37.948Z,2.07
2022-11-28T01:52:13.393Z,2.07
2022-11-28T01:54:53.460Z,2.07
2022-11-28T01:57:26.911Z,2.05
2022-11-28T02:00:11.928Z,2.04
2022-11-28T02:02:47.976Z,2.05
2022-11-28T02:05:21.258Z,2.04
2022-11-28T02:07:52.263Z,2.04
2022-11-28T02:10:37.036Z,2.05
2022-11-28T02:13:20.041Z,2.04
2022-11-28T02:16:05.384Z,2.06
2022-11-28T02:18:53.749Z,2.08
2022-11-28T02:21:35.171Z,2.08
2022-11-28T02:24:29.585Z,2.11
2022-11-28T02:27:38.314Z,2.08
2022-11-28T02:30:25.628Z,2.07
2022-11-28T02:33:12.631Z,2.04
2022-11-28T02:35:55.790Z,2.05
2022-11-28T02:39:13.743Z,2.01
2022-11-28T02:41:54.240Z,2.04
2022-11-28T02:44:36.240Z,1.98
2022-11-28T02:47:23.616Z,1.96
2022-11-28T02:50:19.850Z,1.93
2022-11-28T02:53:06.371Z,1.88
2022-11-28T02:55:39.141Z,1.88
2022-11-28T02:58:11.847Z,1.89
2022-11-28T03:00:43.756Z,1.91
2022-11-28T03:03:52.255Z,1.91
2022-11-28T03:06:46.009Z,1.90
2022-11-28T03:09:21.911Z,1.88
2022-11-28T03:12:36.176Z,1.90
2022-11-28T03:15:10.957Z,1.91
2022-11-28T03:18:10.462Z,1.89
2022-11-28T03:20:53.813Z,1.88
2022-11-28T03:23:44.142Z,1.84
2022-11-28T03:26:37.028Z,1.84
2022-11-28T03:29:20.610Z,1.86
2022-11-28T03:31:59.697Z,1.82
2022-11-28T03:34:38.186Z,1.80
2022-11-28T03:37:25.429Z,1.78
2022-11-28T03:40:01.197Z,1.75
2022-11-28T03:42:41.558Z,1.76
2022-11-28T03:45:22.696Z,1.77
2022-11-28T03:48:13.738Z,1.75
2022-11-28T03:50:53.377Z,1.74
2022-11-28T03:53:34.920Z,1.72
2022-11-28T03:56:17.808Z,1.69
2022-11-28T03:59:02.354Z,1.66
2022-11-28T04:02:06.833Z,1.64
2022-11-28T04:05:29.268Z,1.64
2022-11-28T04:08:14.514Z,1.67
2022-11-28T04:11:19.031Z,1.70
2022-11-28T04:14:05.706Z,1.69
2022-11-28T04:16:47.213Z,1.72
2022-11-28T04:19:29.730Z,1.72
2022-11-28T04:22:18.564Z,1.72
2022-11-28T04:25:01.200Z,1.72
2022-11-28T04:27:38.915Z,1.74
2022-11-28T04:30:12.184Z,1.79
2022-11-28T04:32:52.353Z,1.79
2022-11-28T04:35:30.916Z,1.78
2022-11-28T04:38:05.032Z,1.83
2022-11-28T04:40:46.866Z,1.86
2022-11-28T04:43:48.005Z,1.81
2022-11-28T04:46:26.984Z,1.82
2022-11-28T04:48:57.778Z,1.82
2022-11-28T04:51:48.795Z,1.83
2022-11-28T04:55:01.497Z,1.86
2022-11-28T04:57:51.700Z,1.87
2022-11-28T05:00:24.555Z,1.86
2022-11-28T05:02:54.822Z,1.90
2022-11-28T05:05:28.380Z,1.87
2022-11-28T05:07:59.723Z,1.87
2022-11-28T05:10:30.588Z,1.90
2022-11-28T05:13:00.368Z,1.90
2022-11-28T05:15:30.511Z,1.91
2022-11-28T05:18:00.428Z,1.92
2022-11-28T05:20:31.214Z,1.92
2022-11-28T05:23:01.041Z,1.95
2022-11-28T05:25:30.815Z,1.94
2022-11-28T05:28:00.731Z,1.96
2022-11-28T05:30:30.589Z,1.99
2022-11-28T05:33:00.776Z,1.99
2022-11-28T05:35:30.603Z,2.02
2022-11-28T05:38:00.433Z,2.02
2022-11-28T05:40:30.230Z,2.04
2022-11-28T05:43:01.182Z,2.05
2022-11-28T05:45:30.952Z,2.04
2022-11-28T05:48:00.785Z,2.07
2022-11-28T05:50:30.515Z,2.07
2022-11-28T05:53:00.355Z,2.10
2022-11-28T05:55:30.162Z,2.08
2022-11-28T05:58:00.028Z,2.08
2022-11-28T06:00:29.951Z,2.10
2022-11-28T06:03:01.627Z,2.07
2022-11-28T06:05:47.507Z,2.07
2022-11-28T06:08:16.738Z,2.07
2022-11-28T06:10:43.898Z,2.06
2022-11-28T06:13:13.616Z,2.06
2022-11-28T06:15:45.048Z,2.03
2022-11-28T06:18:14.858Z,2.01
2022-11-28T06:20:44.599Z,1.99
2022-11-28T06:23:14.375Z,1.96
2022-11-28T06:25:44.496Z,1.94
2022-11-28T06:28:14.159Z,1.93
2022-11-28T06:30:44.643Z,1.93
2022-11-28T06:33:14.464Z,1.92
2022-11-28T06:35:42.806Z,1.89
2022-11-28T06:38:14.208Z,1.90
2022-11-28T06:40:42.965Z,1.89
2022-11-28T06:43:11.167Z,1.87
2022-11-28T06:45:39.598Z,1.85
2022-11-28T06:48:08.030Z,1.83
2022-11-28T06:50:36.473Z,1.82
2022-11-28T06:53:04.768Z,1.79
2022-11-28T06:55:33.285Z,1.78
2022-11-28T06:58:01.672Z,1.77
2022-11-28T07:00:31.059Z,1.77
2022-11-28T07:02:58.944Z,1.76
2022-11-28T07:05:31.040Z,1.77
2022-11-28T07:07:58.833Z,1.78
2022-11-28T07:10:29.330Z,1.78
2022-11-28T07:13:05.163Z,1.78
2022-11-28T07:15:35.376Z,1.77
2022-11-28T07:18:05.638Z,1.77
2022-11-28T07:20:35.698Z,1.78
2022-11-28T07:23:05.727Z,1.78
2022-11-28T07:25:35.506Z,1.80
2022-11-28T07:28:05.523Z,1.82
2022-11-28T07:30:35.388Z,1.83
2022-11-28T07:33:05.108Z,1.86
2022-11-28T07:35:34.886Z,1.90
2022-11-28T07:38:04.587Z,1.94
2022-11-28T07:40:34.286Z,1.97
2022-11-28T07:43:04.084Z,1.98
2022-11-28T07:45:53.768Z,2.01
2022-11-28T07:48:23.608Z,2.03
2022-11-28T07:50:53.309Z,2.06
2022-11-28T07:53:23.056Z,2.07
2022-11-28T07:55:52.751Z,2.09
2022-11-28T07:58:22.595Z,2.07
2022-11-28T08:00:52.354Z,2.08
2022-11-28T08:03:23.202Z,2.08
2022-11-28T08:05:52.767Z,2.10
2022-11-28T08:08:23.982Z,2.13
2022-11-28T08:10:59.495Z,2.16
2022-11-28T08:13:29.755Z,2.19
2022-11-28T08:16:08.711Z,2.20
2022-11-28T08:18:38.982Z,2.20
2022-11-28T08:21:12.621Z,2.27
2022-11-28T08:23:45.156Z,2.32
2022-11-28T08:26:17.168Z,2.30
2022-11-28T08:28:48.113Z,2.34
2022-11-28T08:31:29.076Z,2.40
2022-11-28T08:33:59.413Z,2.44
2022-11-28T08:36:29.491Z,2.40
2022-11-28T08:39:24.046Z,2.49
2022-11-28T08:41:51.007Z,2.58
2022-11-28T08:44:19.177Z,2.58
2022-11-28T08:46:47.641Z,2.62
2022-11-28T08:49:17.198Z,2.68
2022-11-28T08:51:44.847Z,2.62
2022-11-28T08:54:12.700Z,2.62
2022-11-28T08:56:41.260Z,2.65
2022-11-28T08:59:09.627Z,2.66
2022-11-28T09:01:39.517Z,2.70
2022-11-28T09:04:09.469Z,2.80
2022-11-28T09:06:40.275Z,2.86
2022-11-28T09:09:10.203Z,2.88
2022-11-28T09:11:39.963Z,2.82
2022-11-28T09:14:10.620Z,2.94
2022-11-28T09:16:41.003Z,2.92
2022-11-28T09:19:10.833Z,3.05
2022-11-28T09:21:41.634Z,3.02
2022-11-28T09:24:13.942Z,2.94
2022-11-28T09:26:43.764Z,2.97
2022-11-28T09:29:13.562Z,3.00
2022-11-28T09:31:47.312Z,3.02
2022-11-28T09:34:17.351Z,3.17
2022-11-28T09:36:47.166Z,3.03
2022-11-28T09:39:16.897Z,3.12
2022-11-28T09:41:49.892Z,3.26
2022-11-28T09:44:43.136Z,3.20
2022-11-28T09:47:26.903Z,3.16
2022-11-28T09:50:10.534Z,3.28
2022-11-28T09:52:53.305Z,3.41
2022-11-28T09:55:35.264Z,3.41
2022-11-28T09:58:14.571Z,3.40
2022-11-28T10:01:10.392Z,3.37
2022-11-28T10:03:49.087Z,3.34
2022-11-28T10:06:47.296Z,3.38
2022-11-28T10:10:02.909Z,3.40
2022-11-28T10:12:50.348Z,3.47
2022-11-28T10:16:06.726Z,3.54
2022-11-28T10:19:00.729Z,3.43
2022-11-28T10:21:39.122Z,3.53
2022-11-28T10:24:19.016Z,3.50
2022-11-28T10:26:57.579Z,3.51
2022-11-28T10:30:06.517Z,3.53
2022-11-28T10:32:45.114Z,3.56
2022-11-28T10:35:25.162Z,3.58
2022-11-28T10:37:57.819Z,3.57
2022-11-28T10:41:25.186Z,3.57
2022-11-28T10:44:25.580Z,3.63
2022-11-28T10:47:43.098Z,3.69
2022-11-28T10:50:58.509Z,3.62
2022-11-28T10:54:00.707Z,3.56
2022-11-28T10:57:04.412Z,3.64
2022-11-28T11:00:05.926Z,3.71
2022-11-28T11:02:55.017Z,3.69
2022-11-28T11:05:28.640Z,3.64
2022-11-28T11:08:04.521Z,3.66
2022-11-28T11:10:49.928Z,3.75
2022-11-28T11:13:29.145Z,3.85
2022-11-28T11:16:04.558Z,3.93
2022-11-28T11:18:42.716Z,3.87
2022-11-28T11:21:24.094Z,3.94
2022-11-28T11:24:18.318Z,4.03
2022-11-28T11:26:49.437Z,3.99
2022-11-28T11:29:35.508Z,4.04
2022-11-28T11:32:06.580Z,4.09
2022-11-28T11:34:45.307Z,4.14
2022-11-28T11:37:32.129Z,4.28
2022-11-28T11:40:21.014Z,4.26
2022-11-28T11:42:59.469Z,4.28
2022-11-28T11:45:35.432Z,4.36
2022-11-28T11:48:05.437Z,4.42
2022-11-28T11:50:36.808Z,4.31
2022-11-28T11:53:10.332Z,4.31
2022-11-28T11:55:52.482Z,4.25
2022-11-28T11:58:49.704Z,4.28
2022-11-28T12:01:22.071Z,4.33
2022-11-28T12:04:23.644Z,4.36
2022-11-28T12:06:58.597Z,4.43
2022-11-28T12:09:48.175Z,4.33
2022-11-28T12:12:26.551Z,4.28
2022-11-28T12:14:57.094Z,4.31
2022-11-28T12:20:59.157Z,4.34
2022-11-28T12:23:48.190Z,4.40
2022-11-28T12:26:42.272Z,4.43
2022-11-28T12:29:46.511Z,4.37
2022-11-28T12:32:40.205Z,4.42
2022-11-28T12:35:48.228Z,4.44
2022-11-28T12:38:39.766Z,4.43
2022-11-28T12:41:34.753Z,4.41
2022-11-28T12:44:48.391Z,4.50
2022-11-28T12:47:33.260Z,4.53
2022-11-28T12:50:45.320Z,4.51
2022-11-28T12:53:42.438Z,4.53
2022-11-28T12:56:42.323Z,4.53
2022-11-28T12:59:35.278Z,4.55
2022-11-28T13:02:23.224Z,4.52
2022-11-28T13:05:12.279Z,4.52
2022-11-28T13:08:12.567Z,4.51
2022-11-28T13:10:55.068Z,4.51
2022-11-28T13:13:47.306Z,4.50
2022-11-28T13:16:42.359Z,4.52
2022-11-28T13:19:35.779Z,4.51
2022-11-28T13:22:20.388Z,4.52
2022-11-28T13:25:19.103Z,4.41
2022-11-28T13:28:13.747Z,4.33
2022-11-28T13:30:59.650Z,4.29
2022-11-28T13:33:54.342Z,4.29
2022-11-28T13:40:31.294Z,4.22
2022-11-28T13:43:17.237Z,4.13
2022-11-28T13:45:46.993Z,4.13
2022-11-28T13:51:37.886Z,4.06
2022-11-28T13:54:22.815Z,4.02
2022-11-28T13:57:30.986Z,4.00
2022-11-28T14:00:19.269Z,4.00
2022-11-28T14:02:56.314Z,3.98
2022-11-28T14:05:32.676Z,3.96
2022-11-28T14:08:03.039Z,3.93
2022-11-28T14:10:49.640Z,3.93
2022-11-28T14:13:59.296Z,3.89
2022-11-28T14:17:24.525Z,3.89
2022-11-28T14:20:38.786Z,3.88
2022-11-28T14:23:23.273Z,3.85
2022-11-28T14:25:55.757Z,3.85
2022-11-28T14:28:37.715Z,3.84
2022-11-28T14:31:11.065Z,3.82
2022-11-28T14:33:44.416Z,3.81
2022-11-28T14:36:28.744Z,3.81
2022-11-28T14:39:34.186Z,3.79
2022-11-28T14:42:11.058Z,3.76
2022-11-28T14:44:57.099Z,3.72
2022-11-28T14:47:42.786Z,3.70
2022-11-28T14:50:17.588Z,3.69
2022-11-28T14:52:48.037Z,3.67
2022-11-28T14:55:22.139Z,3.64
2022-11-28T14:58:05.177Z,3.63
2022-11-28T15:00:57.909Z,3.60
2022-11-28T15:03:59.354Z,3.56
2022-11-28T15:06:38.016Z,3.51
2022-11-28T15:09:37.233Z,3.46
2022-11-28T15:12:32.524Z,3.42
2022-11-28T15:15:02.258Z,3.40
2022-11-28T15:17:34.116Z,3.36
2022-11-28T15:20:19.204Z,3.35
2022-11-28T15:22:46.976Z,3.32
2022-11-28T15:25:29.192Z,3.29
2022-11-28T15:28:14.586Z,3.26
2022-11-28T15:30:51.628Z,3.22
2022-11-28T15:33:23.272Z,3.19
2022-11-28T15:36:12.089Z,3.18
2022-11-28T15:38:43.512Z,3.13
2022-11-28T15:41:12.943Z,3.13
2022-11-28T15:43:46.387Z,3.10
2022-11-28T15:46:34.277Z,3.08
2022-11-28T15:49:04.018Z,3.06
2022-11-28T15:51:38.289Z,3.05
2022-11-28T15:54:39.084Z,3.05
2022-11-28T15:57:25.956Z,3.04
2022-11-28T15:59:58.370Z,3.04
2022-11-28T16:02:34.642Z,3.02
2022-11-28T16:05:08.841Z,3.01
2022-11-28T16:07:44.403Z,3.00
2022-11-28T16:10:25.591Z,2.99
2022-11-28T16:13:04.415Z,2.99
2022-11-28T16:15:34.256Z,2.96
2022-11-28T16:18:04.407Z,2.95
2022-11-28T16:20:37.241Z,2.94
2022-11-28T16:23:19.918Z,2.93
2022-11-28T16:26:05.428Z,2.90
2022-11-28T16:28:40.614Z,2.88
2022-11-28T16:31:20.671Z,2.85
2022-11-28T16:33:47.987Z,2.83
2022-11-28T16:36:15.943Z,2.82
2022-11-28T16:38:47.216Z,2.81
2022-11-28T16:41:25.106Z,2.77
2022-11-28T16:44:02.537Z,2.73
2022-11-28T16:46:48.016Z,2.71
2022-11-28T16:49:47.921Z,2.71
2022-11-28T16:52:27.266Z,2.68
2022-11-28T16:55:00.018Z,2.66
2022-11-28T16:57:47.147Z,2.64
2022-11-28T17:00:16.918Z,2.64
2022-11-28T17:02:46.630Z,2.61
2022-11-28T17:05:17.600Z,2.60
2022-11-28T17:07:47.442Z,2.58
2022-11-28T17:10:17.487Z,2.57
2022-11-28T17:12:47.989Z,2.56
2022-11-28T17:15:22.691Z,2.55
2022-11-28T17:17:55.631Z,2.53
2022-11-28T17:20:26.534Z,2.53
2022-11-28T17:22:58.949Z,2.52
2022-11-28T17:25:27.629Z,2.51
2022-11-28T17:27:56.051Z,2.50
2022-11-28T17:30:23.236Z,2.47
2022-11-28T17:32:52.081Z,2.45
2022-11-28T17:35:29.733Z,2.45
2022-11-28T17:37:59.395Z,2.43
2022-11-28T17:40:36.515Z,2.44
2022-11-28T17:43:04.596Z,2.42
2022-11-28T17:45:35.982Z,2.40
2022-11-28T17:48:07.339Z,2.41
2022-11-28T17:50:37.316Z,2.40
2022-11-28T17:53:07.507Z,2.38
2022-11-28T17:55:35.573Z,2.35
2022-11-28T17:58:04.087Z,2.33
2022-11-28T18:00:33.922Z,2.33
2022-11-28T18:03:00.950Z,2.32
2022-11-28T18:05:29.469Z,2.33
2022-11-28T18:07:57.971Z,2.32
2022-11-28T18:10:26.343Z,2.32
2022-11-28T18:12:56.197Z,2.32
2022-11-28T18:15:23.242Z,2.30
2022-11-28T18:17:52.593Z,2.28
2022-11-28T18:20:20.289Z,2.28
2022-11-28T18:22:48.978Z,2.27
2022-11-28T18:25:17.722Z,2.26
2022-11-28T18:27:46.047Z,2.26
2022-11-28T18:30:15.110Z,2.25
2022-11-28T18:32:43.123Z,2.27
2022-11-28T18:35:12.200Z,2.28
2022-11-28T18:37:40.078Z,2.26
2022-11-28T18:40:09.411Z,2.25
2022-11-28T18:42:36.809Z,2.24
2022-11-28T18:45:06.190Z,2.25
2022-11-28T18:47:36.065Z,2.25
2022-11-28T18:50:07.410Z,2.26
2022-11-28T18:52:37.640Z,2.25
2022-11-28T18:55:08.331Z,2.23
2022-11-28T18:57:38.080Z,2.23
2022-11-28T19:00:08.920Z,2.25
2022-11-28T19:02:38.688Z,2.24
2022-11-28T19:05:08.794Z,2.25
2022-11-28T19:07:38.547Z,2.25
2022-11-28T19:10:09.232Z,2.26
2022-11-28T19:12:39.241Z,2.26
2022-11-28T19:15:11.622Z,2.26
2022-11-28T19:17:41.350Z,2.26
2022-11-28T19:20:12.038Z,2.25
2022-11-28T19:22:41.874Z,2.26
2022-11-28T19:25:11.779Z,2.28
2022-11-28T19:27:41.822Z,2.27
2022-11-28T19:30:13.399Z,2.27
2022-11-28T19:32:43.122Z,2.27
2022-11-28T19:35:12.785Z,2.28
2022-11-28T19:37:42.526Z,2.28
2022-11-28T19:40:13.123Z,2.29
2022-11-28T19:42:42.760Z,2.28
2022-11-28T19:45:12.555Z,2.28
2022-11-28T19:47:42.607Z,2.27
2022-11-28T19:50:12.654Z,2.29
2022-11-28T19:52:42.564Z,2.30
2022-11-28T19:55:12.547Z,2.28
2022-11-28T19:57:42.328Z,2.29
2022-11-28T20:00:13.393Z,2.28
2022-11-28T20:02:43.262Z,2.29
2022-11-28T20:05:13.124Z,2.29
2022-11-28T20:07:42.849Z,2.30
2022-11-28T20:10:13.245Z,2.30
2022-11-28T20:12:43.066Z,2.29
2022-11-28T20:15:18.065Z,2.27
2022-11-28T20:17:49.113Z,2.28
2022-11-28T20:20:19.422Z,2.28
2022-11-28T20:22:49.089Z,2.27
2022-11-28T20:25:20.996Z,2.26
2022-11-28T20:27:51.000Z,2.26
2022-11-28T20:30:20.749Z,2.25
2022-11-28T20:32:50.432Z,2.25
2022-11-28T20:35:20.234Z,2.28
2022-11-28T20:37:50.483Z,2.27
2022-11-28T20:40:20.152Z,2.27
2022-11-28T20:42:49.837Z,2.25
2022-11-28T20:45:19.511Z,2.25
2022-11-28T20:47:50.064Z,2.24
2022-11-28T20:50:19.998Z,2.24
2022-11-28T20:52:49.739Z,2.24
2022-11-28T20:55:19.544Z,2.25
2022-11-28T20:57:49.294Z,2.23
2022-11-28T21:00:24.971Z,2.24
2022-11-28T21:02:56.292Z,2.25
2022-11-28T21:05:26.015Z,2.24
2022-11-28T21:07:54.416Z,2.24
2022-11-28T21:10:22.938Z,2.24
2022-11-28T21:12:51.242Z,2.23
2022-11-28T21:15:19.668Z,2.24
2022-11-28T21:17:48.121Z,2.24
2022-11-28T21:20:16.873Z,2.24
2022-11-28T21:22:45.011Z,2.24
2022-11-28T21:25:13.356Z,2.24
2022-11-28T21:27:41.878Z,2.23
2022-11-28T21:30:10.567Z,2.24
2022-11-28T21:32:38.591Z,2.26
2022-11-28T21:35:07.493Z,2.25
2022-11-28T21:37:36.669Z,2.25
2022-11-28T21:40:04.386Z,2.25
2022-11-28T21:42:32.380Z,2.24
2022-11-28T21:45:00.735Z,2.25
2022-11-28T21:47:29.234Z,2.25
2022-11-28T21:49:57.672Z,2.24
2022-11-28T21:52:25.955Z,2.23
2022-11-28T21:54:54.419Z,2.23
2022-11-28T21:57:22.887Z,2.24
2022-11-28T21:59:51.280Z,2.23
2022-11-28T22:02:20.208Z,2.24
2022-11-28T22:04:48.605Z,2.22
2022-11-28T22:07:17.051Z,2.22
2022-11-28T22:09:45.366Z,2.20
2022-11-28T22:12:17.448Z,2.21
2022-11-28T22:14:46.411Z,2.19
2022-11-28T22:17:15.987Z,2.18
2022-11-28T22:19:43.100Z,2.16
2022-11-28T22:22:12.894Z,2.16
2022-11-28T22:24:42.745Z,2.15
2022-11-28T22:27:12.433Z,2.13
2022-11-28T22:29:42.192Z,2.12
2022-11-28T22:32:12.284Z,2.12
2022-11-28T22:34:42.340Z,2.10
2022-11-28T22:37:12.227Z,2.09
2022-11-28T22:39:42.053Z,2.09
2022-11-28T22:42:16.592Z,2.09
2022-11-28T22:44:47.279Z,2.08
2022-11-28T22:47:14.550Z,2.09
2022-11-28T22:49:43.069Z,2.10
2022-11-28T22:52:11.460Z,2.08
2022-11-28T22:54:39.941Z,2.07
2022-11-28T22:57:08.394Z,2.06
2022-11-28T22:59:38.543Z,2.05
2022-11-28T23:02:06.640Z,2.04
2022-11-28T23:04:37.850Z,2.04
2022-11-28T23:07:07.760Z,2.01
2022-11-28T23:09:37.664Z,2.01
2022-11-28T23:12:10.748Z,1.97
2022-11-28T23:14:40.739Z,1.96
2022-11-28T23:17:09.827Z,1.94
2022-11-28T23:19:37.750Z,1.90
2022-11-28T23:22:06.197Z,1.88
2022-11-28T23:24:34.716Z,1.86
2022-11-28T23:27:03.355Z,1.83
2022-11-28T23:29:31.805Z,1.78
2022-11-28T23:32:00.164Z,1.81
2022-11-28T23:34:28.722Z,1.78
2022-11-28T23:36:57.059Z,1.74
2022-11-28T23:39:26.048Z,1.72
2022-11-28T23:41:55.406Z,1.70
2022-11-28T23:44:22.784Z,1.66
2022-11-28T23:46:51.318Z,1.62
2022-11-28T23:49:19.812Z,1.60
2022-11-28T23:51:48.085Z,1.60
2022-11-28T23:54:16.815Z,1.61
2022-11-28T23:56:45.218Z,1.60
2022-11-28T23:59:13.581Z,1.59
